Time;durP1;ratioP1;P1;durP2;ratioP2;P2;SDS_P1;SDS_P2;PMS_P1;PMS_P2;Temp;Humidity;BMP_temperature;BMP_pressure;BME280_temperature;BME280_humidity;BME280_pressure;Samples;Min_cycle;Max_cycle;Signal;HPM_P1;HPM_P2
2023/01/27 00:00:40;;;;;;;23.98;13.85;;;-0.40;84.50;;;;;;5075382;28;20024;-75
2023/01/27 00:03:09;;;;;;;25.48;15.25;;;-0.30;84.40;;;;;;5058460;28;20041;-74
2023/01/27 00:05:36;;;;;;;21.83;14.02;;;-0.30;83.90;;;;;;5075307;28;20031;-75
2023/01/27 00:08:02;;;;;;;22.83;14.38;;;-0.30;83.90;;;;;;5075268;28;20539;-75
2023/01/27 00:10:27;;;;;;;21.33;12.93;;;-0.30;83.50;;;;;;5058862;28;20028;-75
2023/01/27 00:15:39;;;;;;;21.90;12.65;;;-0.30;83.40;;;;;;5093657;28;20082;-75
2023/01/27 00:18:05;;;;;;;21.67;12.95;;;-0.30;83.50;;;;;;5075450;28;20020;-74
2023/01/27 00:26:10;;;;;;;19.83;12.88;;;-0.30;83.30;;;;;;5093432;28;20392;-75
2023/01/27 00:28:37;;;;;;;21.90;13.32;;;-0.30;83.20;;;;;;5075419;28;20030;-74
2023/01/27 00:31:06;;;;;;;21.95;13.10;;;-0.20;83.00;;;;;;5074614;28;20050;-75
2023/01/27 00:33:32;;;;;;;21.88;13.32;;;-0.30;83.00;;;;;;5033773;28;20049;-75
2023/01/27 00:35:59;;;;;;;18.55;12.43;;;-0.20;83.10;;;;;;5053433;28;20043;-74
2023/01/27 00:38:27;;;;;;;20.98;12.40;;;-0.20;83.00;;;;;;5057642;28;20103;-75
2023/01/27 00:43:36;;;;;;;24.85;14.57;;;-0.10;82.40;;;;;;4990882;28;20122;-75
2023/01/27 00:46:02;;;;;;;23.65;14.30;;;-0.10;82.10;;;;;;5057670;28;20057;-74
2023/01/27 00:48:27;;;;;;;25.85;13.18;;;-0.10;83.00;;;;;;5057648;28;20031;-74
2023/01/27 00:50:53;;;;;;;22.27;12.98;;;-0.10;82.30;;;;;;5057960;28;20023;-74
2023/01/27 00:53:19;;;;;;;22.95;12.15;;;-0.10;82.20;;;;;;5057382;28;20065;-74
2023/01/27 00:55:46;;;;;;;22.83;11.73;;;0.00;82.00;;;;;;5057625;28;20027;-76
2023/01/27 00:58:12;;;;;;;21.98;12.38;;;0.00;81.70;;;;;;5058015;28;20019;-74
2023/01/27 01:00:37;;;;;;;20.33;11.27;;;0.10;81.50;;;;;;5057745;28;20023;-75
2023/01/27 01:03:03;;;;;;;17.95;10.35;;;0.10;81.20;;;;;;5057560;28;20059;-74
2023/01/27 01:05:29;;;;;;;18.05;10.63;;;0.10;80.60;;;;;;4990226;28;20102;-78
2023/01/27 01:07:54;;;;;;;18.80;10.75;;;0.20;80.50;;;;;;4989528;28;20062;-76
2023/01/27 01:10:21;;;;;;;17.52;11.23;;;0.20;80.40;;;;;;5057381;28;20071;-75
2023/01/27 01:12:47;;;;;;;21.50;12.23;;;0.20;80.40;;;;;;5057574;28;20398;-75
2023/01/27 01:15:12;;;;;;;19.25;11.85;;;0.10;80.00;;;;;;5057241;28;20029;-74
2023/01/27 01:17:38;;;;;;;17.95;11.40;;;0.20;79.90;;;;;;5040690;28;20027;-74
2023/01/27 01:20:04;;;;;;;20.55;12.35;;;0.10;80.00;;;;;;5057303;28;20027;-74
2023/01/27 01:22:29;;;;;;;16.58;11.38;;;0.10;80.00;;;;;;5056683;28;20034;-75
2023/01/27 01:24:55;;;;;;;17.80;11.55;;;0.00;80.30;;;;;;5057289;28;20056;-76
2023/01/27 01:27:21;;;;;;;16.88;11.07;;;0.00;80.40;;;;;;5056907;28;20137;-75
2023/01/27 01:29:47;;;;;;;17.05;11.13;;;0.00;80.50;;;;;;5057190;28;20042;-75
2023/01/27 01:32:12;;;;;;;17.70;10.32;;;0.10;80.50;;;;;;5057583;28;20125;-75
2023/01/27 01:34:38;;;;;;;16.50;9.85;;;0.10;80.40;;;;;;5061002;28;20023;-75
2023/01/27 01:37:03;;;;;;;16.48;10.25;;;0.10;80.50;;;;;;5061000;28;20117;-75
2023/01/27 01:39:30;;;;;;;17.17;10.20;;;0.10;80.50;;;;;;5060911;28;20091;-75
2023/01/27 01:41:56;;;;;;;13.63;9.20;;;0.10;80.70;;;;;;5060628;28;20060;-75
2023/01/27 01:44:31;;;;;;;13.07;8.73;;;0.10;80.50;;;;;;5060736;28;20461;-75
2023/01/27 01:46:58;;;;;;;12.10;7.90;;;0.20;80.10;;;;;;5060938;28;20060;-75
2023/01/27 01:49:37;;;;;;;13.15;8.07;;;0.10;79.90;;;;;;5060470;28;20075;-76
2023/01/27 01:52:11;;;;;;;11.60;7.47;;;0.20;79.50;;;;;;5060508;28;20095;-75
2023/01/27 01:54:45;;;;;;;9.88;6.32;;;0.20;79.10;;;;;;5060870;28;20022;-75
2023/01/27 01:57:33;;;;;;;10.68;6.53;;;0.20;78.50;;;;;;5060415;28;20500;-75
2023/01/27 02:00:09;;;;;;;8.05;5.63;;;0.10;78.00;;;;;;5060461;28;20022;-75
2023/01/27 02:02:36;;;;;;;9.05;5.53;;;0.10;77.90;;;;;;5060866;28;20023;-75
2023/01/27 02:05:17;;;;;;;8.60;5.40;;;0.10;77.80;;;;;;5060590;28;20025;-75
2023/01/27 02:07:54;;;;;;;10.52;6.05;;;0.10;77.70;;;;;;5060660;28;20061;-75
2023/01/27 02:10:20;;;;;;;7.95;5.78;;;0.10;77.70;;;;;;5060289;28;20072;-75
2023/01/27 02:12:46;;;;;;;7.93;5.57;;;0.10;77.60;;;;;;5060207;28;20077;-75
2023/01/27 02:15:11;;;;;;;9.02;5.93;;;0.10;77.50;;;;;;4992596;28;20027;-76
2023/01/27 02:17:37;;;;;;;8.70;5.68;;;0.10;77.50;;;;;;5060389;28;20151;-76
2023/01/27 02:20:29;;;;;;;10.80;6.20;;;0.00;77.10;;;;;;5060672;28;20031;-75
2023/01/27 02:23:11;;;;;;;9.60;6.40;;;0.10;77.10;;;;;;5060053;28;20019;-75
2023/01/27 02:25:47;;;;;;;9.50;7.03;;;0.10;77.00;;;;;;5059822;28;20121;-75
2023/01/27 02:28:13;;;;;;;9.63;6.43;;;0.10;77.20;;;;;;5060072;28;20041;-75
2023/01/27 02:30:43;;;;;;;9.10;5.85;;;0.00;77.30;;;;;;5059698;28;20141;-75
2023/01/27 02:33:11;;;;;;;11.93;6.57;;;0.10;77.30;;;;;;5059711;28;20033;-75
2023/01/27 02:35:50;;;;;;;10.23;6.07;;;0.10;77.40;;;;;;5060222;28;20030;-74
2023/01/27 02:38:18;;;;;;;10.00;5.93;;;0.10;76.90;;;;;;5059755;28;20030;-74
2023/01/27 02:40:47;;;;;;;10.13;6.85;;;0.10;76.80;;;;;;5059960;28;20030;-74
2023/01/27 02:43:12;;;;;;;9.82;6.50;;;0.10;76.70;;;;;;5059830;28;20117;-74
2023/01/27 02:45:38;;;;;;;10.32;6.53;;;0.10;76.80;;;;;;5058451;28;20104;-74
2023/01/27 02:48:04;;;;;;;10.63;6.47;;;0.20;76.80;;;;;;5059344;28;20528;-75
2023/01/27 02:50:29;;;;;;;8.32;5.43;;;0.20;76.90;;;;;;5059299;28;20019;-74
2023/01/27 02:52:56;;;;;;;8.00;5.47;;;0.10;76.60;;;;;;5043247;28;20034;-74
2023/01/27 02:55:22;;;;;;;10.07;6.30;;;0.20;76.60;;;;;;5059692;28;20022;-74
2023/01/27 02:57:47;;;;;;;9.27;6.13;;;0.20;76.60;;;;;;5059397;28;20026;-75
2023/01/27 03:00:13;;;;;;;12.20;7.90;;;0.20;76.50;;;;;;5059514;28;20031;-75
2023/01/27 03:02:39;;;;;;;11.48;8.27;;;0.20;76.60;;;;;;5059280;28;20091;-74
2023/01/27 03:05:04;;;;;;;11.65;8.00;;;0.20;76.90;;;;;;5058843;28;20022;-75
2023/01/27 03:07:30;;;;;;;13.30;8.38;;;0.20;77.10;;;;;;5059237;28;20483;-75
2023/01/27 03:09:56;;;;;;;11.93;7.85;;;0.20;77.20;;;;;;5059242;28;20030;-74
2023/01/27 03:12:21;;;;;;;11.45;7.93;;;0.20;78.20;;;;;;5059165;28;20034;-77
2023/01/27 03:20:17;;;;;;;12.02;6.28;;;0.20;77.20;;;;;;4992110;28;20045;-76
2023/01/27 03:22:42;;;;;;;10.93;6.47;;;0.20;77.00;;;;;;5058785;28;20113;-79
2023/01/27 03:25:08;;;;;;;10.07;6.57;;;0.20;76.90;;;;;;5058887;28;20475;-80
2023/01/27 03:27:35;;;;;;;10.05;6.70;;;0.10;77.80;;;;;;5058892;28;20039;-75
2023/01/27 03:30:01;;;;;;;8.20;5.85;;;0.20;76.90;;;;;;5058765;28;20086;-76
2023/01/27 03:32:30;;;;;;;13.43;7.20;;;0.20;76.80;;;;;;5058861;28;20034;-74
2023/01/27 03:34:59;;;;;;;13.65;9.10;;;0.20;76.90;;;;;;5075838;28;20039;-76
2023/01/27 03:48:35;;;;;;;15.13;9.57;;;0.10;78.20;;;;;;4992393;28;20041;-81
2023/01/27 03:51:02;;;;;;;12.10;8.18;;;0.00;78.00;;;;;;5059136;28;20433;-85
2023/01/27 03:53:28;;;;;;;12.35;8.13;;;0.00;78.00;;;;;;5059195;28;20026;-80
2023/01/27 03:55:54;;;;;;;11.15;7.47;;;0.10;78.10;;;;;;5058917;28;20022;-85
2023/01/27 03:58:25;;;;;;;13.88;8.23;;;0.10;77.90;;;;;;5058256;28;20024;-74
2023/01/27 04:00:54;;;;;;;10.75;7.53;;;0.10;78.00;;;;;;5058201;28;20391;-74
2023/01/27 04:08:53;;;;;;;12.45;8.20;;;0.00;77.20;;;;;;4991418;28;20406;-74
2023/01/27 04:14:05;;;;;;;12.85;8.32;;;-0.10;77.30;;;;;;4991622;28;20045;-85
2023/01/27 04:16:31;;;;;;;13.10;8.85;;;-0.10;77.70;;;;;;5058596;28;20388;-77
2023/01/27 04:18:57;;;;;;;16.02;10.05;;;-0.10;78.00;;;;;;5058642;28;20022;-83
2023/01/27 04:21:24;;;;;;;18.00;11.27;;;-0.10;78.50;;;;;;5058749;28;20050;-82
2023/01/27 04:23:50;;;;;;;16.13;10.50;;;-0.20;78.90;;;;;;5058820;28;20035;-82
2023/01/27 04:26:16;;;;;;;18.85;11.43;;;-0.30;79.40;;;;;;5058505;28;20034;-83
2023/01/27 04:28:43;;;;;;;17.60;10.55;;;-0.30;79.50;;;;;;5058715;28;20531;-82
2023/01/27 04:31:09;;;;;;;19.17;10.80;;;-0.40;79.70;;;;;;5057892;28;20046;-74
2023/01/27 04:33:34;;;;;;;17.08;10.95;;;-0.40;79.80;;;;;;5057631;28;20023;-83
2023/01/27 04:36:00;;;;;;;17.05;11.25;;;-0.40;80.20;;;;;;5057774;28;20022;-83
2023/01/27 04:38:25;;;;;;;17.98;11.10;;;-0.30;80.30;;;;;;5058205;28;20066;-81
2023/01/27 04:40:51;;;;;;;18.75;11.82;;;-0.30;80.20;;;;;;5058162;28;20019;-84
2023/01/27 04:43:17;;;;;;;18.50;11.32;;;-0.30;79.80;;;;;;5059484;28;20486;-82
2023/01/27 04:45:42;;;;;;;18.13;11.43;;;-0.30;79.50;;;;;;5057863;28;20053;-84
2023/01/27 04:48:08;;;;;;;19.40;12.50;;;-0.30;79.50;;;;;;5058026;28;20092;-77
2023/01/27 04:50:34;;;;;;;19.67;12.20;;;-0.30;79.70;;;;;;5057922;28;20551;-81
2023/01/27 04:52:59;;;;;;;22.00;12.15;;;-0.40;79.50;;;;;;5058553;28;20045;-82
2023/01/27 04:55:25;;;;;;;19.15;12.02;;;-0.30;79.70;;;;;;5058317;28;20018;-84
2023/01/27 04:57:51;;;;;;;18.80;12.00;;;-0.40;79.60;;;;;;5058519;28;20432;-83
2023/01/27 05:00:17;;;;;;;19.15;12.15;;;-0.40;79.70;;;;;;5041468;28;20038;-87
2023/01/27 05:02:43;;;;;;;24.17;13.70;;;-0.40;79.80;;;;;;5041565;28;20383;-81
2023/01/27 05:05:08;;;;;;;20.40;13.32;;;-0.50;81.10;;;;;;5058680;28;20109;-86
2023/01/27 05:07:34;;;;;;;20.65;12.90;;;-0.60;80.30;;;;;;5075191;28;20030;-87
2023/01/27 05:10:00;;;;;;;23.50;14.65;;;-0.60;80.50;;;;;;5062094;28;20356;-87
2023/01/27 05:12:25;;;;;;;22.38;13.63;;;-0.50;80.70;;;;;;5061957;28;20483;-86
2023/01/27 05:14:51;;;;;;;24.17;14.85;;;-0.60;81.50;;;;;;4993800;28;20110;-87
2023/01/27 05:17:17;;;;;;;25.05;14.25;;;-0.60;80.80;;;;;;5061708;28;20075;-75
2023/01/27 05:19:42;;;;;;;26.90;13.50;;;-0.70;80.80;;;;;;5062333;28;20079;-87
2023/01/27 05:22:10;;;;;;;26.60;15.20;;;-0.60;80.90;;;;;;5061812;28;20489;-82
2023/01/27 05:24:37;;;;;;;21.27;13.43;;;-0.60;80.70;;;;;;5061688;28;20025;-78
2023/01/27 05:27:03;;;;;;;22.38;14.00;;;-0.60;80.50;;;;;;5060932;28;20046;-75
2023/01/27 05:29:28;;;;;;;25.35;15.15;;;-0.60;80.80;;;;;;5060640;28;20034;-76
2023/01/27 05:31:54;;;;;;;22.40;14.23;;;-0.60;80.70;;;;;;5060840;28;20042;-77
2023/01/27 05:34:19;;;;;;;25.38;14.90;;;-0.60;80.70;;;;;;5060887;28;20015;-75
2023/01/27 05:36:45;;;;;;;23.25;14.43;;;-0.60;80.80;;;;;;5060789;28;20031;-75
2023/01/27 05:39:11;;;;;;;25.73;14.95;;;-0.50;80.90;;;;;;5060685;28;20114;-78
2023/01/27 05:41:37;;;;;;;25.10;15.48;;;-0.50;81.70;;;;;;5061214;28;20037;-77
2023/01/27 05:44:03;;;;;;;22.52;15.40;;;-0.50;80.70;;;;;;5060854;28;20037;-75
2023/01/27 05:46:31;;;;;;;25.05;15.85;;;-0.50;80.80;;;;;;5060703;28;20040;-76
2023/01/27 05:49:03;;;;;;;25.65;16.35;;;-0.50;80.80;;;;;;5060668;28;20023;-75
2023/01/27 05:51:32;;;;;;;29.88;16.48;;;-0.50;81.20;;;;;;5061182;28;20019;-76
2023/01/27 05:53:57;;;;;;;30.55;17.50;;;-0.50;81.10;;;;;;5060917;28;20069;-76
2023/01/27 05:56:25;;;;;;;26.30;15.15;;;-0.50;81.10;;;;;;5060439;28;20045;-78
2023/01/27 05:58:56;;;;;;;23.33;15.02;;;-0.40;81.10;;;;;;5060612;28;20034;-75
2023/01/27 06:01:27;;;;;;;24.73;15.65;;;-0.50;80.80;;;;;;5060802;28;20046;-75
2023/01/27 06:03:53;;;;;;;23.77;15.00;;;-0.40;80.80;;;;;;5060365;28;20027;-78
2023/01/27 06:06:21;;;;;;;25.70;16.42;;;-0.40;80.80;;;;;;5060171;28;20364;-75
2023/01/27 06:08:47;;;;;;;30.85;17.85;;;-0.40;81.00;;;;;;5060530;28;20034;-75
2023/01/27 06:11:14;;;;;;;31.60;17.67;;;-0.40;81.00;;;;;;5060188;28;20156;-76
2023/01/27 06:13:40;;;;;;;26.67;16.20;;;-0.40;80.90;;;;;;5060193;28;20022;-74
2023/01/27 06:16:09;;;;;;;24.42;15.25;;;-0.40;80.90;;;;;;5059464;28;20080;-74
2023/01/27 06:18:36;;;;;;;27.48;16.35;;;-0.40;81.00;;;;;;5059639;28;20458;-75
2023/01/27 06:21:04;;;;;;;26.10;14.63;;;-0.40;81.00;;;;;;5043251;28;20026;-77
2023/01/27 06:23:30;;;;;;;24.48;15.68;;;-0.40;80.50;;;;;;5059990;28;20121;-77
2023/01/27 06:26:01;;;;;;;29.33;16.50;;;-0.30;80.30;;;;;;5060036;28;20033;-79
2023/01/27 06:28:27;;;;;;;29.67;17.73;;;-0.40;80.10;;;;;;5059909;28;20031;-78
2023/01/27 06:30:52;;;;;;;29.80;17.55;;;-0.40;80.30;;;;;;5058966;28;20469;-79
2023/01/27 06:33:18;;;;;;;32.00;18.08;;;-0.40;80.70;;;;;;5059497;28;20113;-74
2023/01/27 06:35:43;;;;;;;29.95;17.42;;;-0.50;80.80;;;;;;5059829;28;20026;-79
2023/01/27 06:38:13;;;;;;;30.50;17.80;;;-0.50;80.80;;;;;;4991549;28;20076;-78
2023/01/27 06:40:39;;;;;;;30.92;18.63;;;-0.50;80.90;;;;;;5058117;28;20475;-76
2023/01/27 06:43:12;;;;;;;30.92;19.10;;;-0.60;81.20;;;;;;4991045;28;20113;-79
2023/01/27 06:45:37;;;;;;;31.33;19.00;;;-0.60;81.70;;;;;;5064254;28;20045;-77
2023/01/27 06:48:03;;;;;;;33.97;18.48;;;-0.60;81.80;;;;;;5065737;28;20444;-76
2023/01/27 06:50:29;;;;;;;31.20;18.58;;;-0.60;81.70;;;;;;5086681;28;20432;-78
2023/01/27 06:53:03;;;;;;;33.65;19.98;;;-0.60;81.80;;;;;;5078245;28;20022;-78
2023/01/27 06:55:29;;;;;;;36.95;19.50;;;-0.50;81.80;;;;;;5059414;28;20076;-82
2023/01/27 06:57:55;;;;;;;35.40;20.58;;;-0.50;81.70;;;;;;4991704;28;20097;-75
2023/01/27 07:00:21;;;;;;;36.85;20.60;;;-0.60;81.70;;;;;;5059363;28;20057;-77
2023/01/27 07:02:47;;;;;;;30.27;18.58;;;-0.60;82.10;;;;;;5060190;28;20160;-76
2023/01/27 07:05:13;;;;;;;37.72;21.23;;;-0.60;82.10;;;;;;5042702;28;20512;-78
2023/01/27 07:07:39;;;;;;;35.25;19.77;;;-0.60;82.40;;;;;;5059169;28;20073;-81
2023/01/27 07:10:06;;;;;;;36.60;19.48;;;-0.60;83.20;;;;;;4992007;28;20022;-82
2023/01/27 07:12:34;;;;;;;38.75;21.23;;;-0.60;82.10;;;;;;5059758;28;20551;-86
2023/01/27 07:15:00;;;;;;;41.42;22.63;;;-0.60;82.20;;;;;;5058866;28;20493;-79
2023/01/27 07:17:25;;;;;;;36.85;20.83;;;-0.60;82.40;;;;;;5059341;28;20030;-85
2023/01/27 07:19:51;;;;;;;42.15;21.10;;;-0.50;82.50;;;;;;5059529;28;20026;-80
2023/01/27 07:22:16;;;;;;;35.30;19.70;;;-0.60;82.40;;;;;;5059617;28;20022;-79
2023/01/27 07:24:42;;;;;;;36.90;20.15;;;-0.50;82.50;;;;;;5059674;28;20195;-89
2023/01/27 07:27:09;;;;;;;34.10;19.65;;;-0.50;82.40;;;;;;5059460;28;20092;-86
2023/01/27 07:29:34;;;;;;;35.47;19.70;;;-0.50;82.50;;;;;;5073346;28;20067;-86
2023/01/27 07:32:00;;;;;;;32.47;18.83;;;-0.50;83.40;;;;;;5089942;28;20052;-88
2023/01/27 07:34:25;;;;;;;39.83;20.35;;;-0.50;82.50;;;;;;5073506;28;20107;-85
2023/01/27 07:36:51;;;;;;;34.00;19.25;;;-0.40;83.80;;;;;;5072603;28;20461;-80
2023/01/27 07:39:17;;;;;;;35.95;19.38;;;-0.40;82.80;;;;;;5072494;28;20372;-81
2023/01/27 07:41:42;;;;;;;33.95;20.02;;;-0.40;82.40;;;;;;5073830;28;20033;-78
2023/01/27 07:44:09;;;;;;;32.20;18.70;;;-0.40;82.50;;;;;;5072660;28;20112;-83
2023/01/27 07:46:34;;;;;;;37.75;20.90;;;-0.40;82.40;;;;;;5073443;28;20035;-84
2023/01/27 07:49:00;;;;;;;38.45;21.25;;;-0.40;82.60;;;;;;5074353;28;20029;-82
2023/01/27 07:51:26;;;;;;;37.90;21.73;;;-0.40;81.90;;;;;;5073875;28;20021;-85
2023/01/27 07:53:51;;;;;;;38.80;22.42;;;-0.40;82.10;;;;;;5072983;28;20024;-85
2023/01/27 07:56:18;;;;;;;37.55;20.95;;;-0.40;82.10;;;;;;5072694;28;20027;-81
2023/01/27 07:58:44;;;;;;;39.38;21.92;;;-0.30;83.00;;;;;;5072006;28;20028;-82
2023/01/27 08:01:10;;;;;;;40.92;22.45;;;-0.20;82.90;;;;;;5070106;28;20033;-79
2023/01/27 08:03:36;;;;;;;39.92;22.95;;;-0.10;83.10;;;;;;5071703;28;20032;-79
2023/01/27 08:06:10;;;;;;;42.63;23.52;;;-0.10;82.70;;;;;;5071864;28;20031;-79
2023/01/27 08:08:36;;;;;;;46.95;22.67;;;0.00;82.30;;;;;;5071650;28;20074;-76
2023/01/27 08:11:07;;;;;;;43.13;22.73;;;0.40;89.20;;;;;;5071509;28;20028;-78
2023/01/27 08:13:34;;;;;;;38.42;20.85;;;0.80;88.70;;;;;;5071525;28;20039;-77
2023/01/27 08:16:01;;;;;;;35.65;18.85;;;1.40;84.70;;;;;;5054972;28;20036;-77
2023/01/27 08:18:28;;;;;;;30.60;18.08;;;1.70;80.00;;;;;;5071677;28;20021;-77
2023/01/27 08:20:57;;;;;;;34.92;18.83;;;2.00;76.50;;;;;;5071650;28;20081;-79
2023/01/27 08:23:23;;;;;;;32.35;17.42;;;2.30;76.20;;;;;;5071558;28;20027;-77
2023/01/27 08:25:50;;;;;;;27.00;16.55;;;2.50;74.50;;;;;;5071463;28;20369;-77
2023/01/27 08:28:16;;;;;;;26.98;16.33;;;2.60;73.00;;;;;;5054803;28;20036;-77
2023/01/27 08:30:41;;;;;;;29.70;16.83;;;2.80;72.80;;;;;;5071371;28;20045;-85
2023/01/27 08:33:07;;;;;;;27.55;16.13;;;2.90;69.60;;;;;;5077294;28;20050;-76
2023/01/27 08:35:34;;;;;;;25.50;15.40;;;2.50;68.20;;;;;;5093128;28;20055;-81
2023/01/27 08:38:00;;;;;;;30.10;16.83;;;2.10;69.60;;;;;;5090210;28;20036;-89
2023/01/27 08:40:25;;;;;;;25.98;15.32;;;1.60;71.00;;;;;;5074705;28;20025;-88
2023/01/27 08:42:51;;;;;;;27.52;15.40;;;1.30;72.20;;;;;;5074980;28;20024;-88
2023/01/27 08:45:16;;;;;;;28.10;16.40;;;0.90;73.20;;;;;;5077697;28;20021;-88
2023/01/27 08:47:42;;;;;;;26.55;15.50;;;0.70;74.80;;;;;;5077318;28;20445;-87
2023/01/27 08:50:08;;;;;;;28.05;16.05;;;0.40;76.00;;;;;;5075474;28;20036;-87
2023/01/27 08:52:34;;;;;;;27.95;15.68;;;0.20;76.70;;;;;;5074833;28;20020;-73
2023/01/27 08:54:59;;;;;;;27.13;16.65;;;0.10;77.30;;;;;;5075245;28;20017;-74
2023/01/27 08:57:25;;;;;;;28.08;16.52;;;0.10;77.90;;;;;;5075780;28;20044;-75
2023/01/27 08:59:51;;;;;;;28.23;16.95;;;0.00;78.30;;;;;;5077047;28;20047;-74
2023/01/27 09:02:16;;;;;;;26.45;15.10;;;0.00;78.80;;;;;;5075317;28;20017;-75
2023/01/27 09:04:44;;;;;;;26.50;15.32;;;0.00;78.70;;;;;;5076180;28;20096;-73
2023/01/27 09:07:09;;;;;;;30.92;16.42;;;0.00;78.70;;;;;;5074903;28;20039;-74
2023/01/27 09:09:35;;;;;;;27.13;15.73;;;-0.10;78.70;;;;;;5076020;28;20029;-74
2023/01/27 09:12:00;;;;;;;22.38;14.13;;;-0.10;78.80;;;;;;5075146;28;20059;-73
2023/01/27 09:14:26;;;;;;;24.13;14.40;;;0.00;78.80;;;;;;5075150;28;20028;-74
2023/01/27 09:16:52;;;;;;;27.85;14.85;;;0.00;79.00;;;;;;5073196;28;20078;-74
2023/01/27 09:19:17;;;;;;;23.27;13.60;;;0.00;78.70;;;;;;5073551;28;20023;-75
2023/01/27 09:21:43;;;;;;;24.17;15.13;;;0.00;78.30;;;;;;5073491;28;20029;-74
2023/01/27 09:24:08;;;;;;;22.10;14.35;;;-0.10;78.30;;;;;;5074157;28;20040;-73
2023/01/27 09:26:34;;;;;;;25.17;14.80;;;-0.10;78.60;;;;;;5072944;28;20025;-73
2023/01/27 09:28:59;;;;;;;26.55;14.82;;;-0.10;78.80;;;;;;5073121;28;20078;-74
2023/01/27 09:31:25;;;;;;;23.55;14.40;;;-0.10;78.90;;;;;;5020240;28;20495;-73
2023/01/27 09:33:50;;;;;;;27.73;13.68;;;0.00;78.90;;;;;;5022533;28;20376;-73
2023/01/27 09:36:19;;;;;;;23.70;14.23;;;0.00;78.80;;;;;;5014315;28;20384;-74
2023/01/27 09:38:53;;;;;;;21.63;13.60;;;0.00;78.70;;;;;;5013143;28;20036;-74
2023/01/27 09:41:50;;;;;;;24.42;14.40;;;0.10;79.50;;;;;;4972952;28;20027;-77
2023/01/27 09:44:19;;;;;;;22.90;13.90;;;0.10;78.50;;;;;;4972775;28;20031;-74
2023/01/27 09:46:59;;;;;;;23.02;12.77;;;0.20;78.40;;;;;;4972191;28;20035;-75
2023/01/27 09:50:05;;;;;;;22.80;14.57;;;0.20;78.10;;;;;;4972633;28;20023;-72
2023/01/27 09:52:49;;;;;;;25.50;15.15;;;0.20;77.90;;;;;;4972367;28;20027;-76
2023/01/27 09:55:37;;;;;;;24.42;14.57;;;0.20;77.70;;;;;;4971763;28;20110;-75
2023/01/27 09:58:17;;;;;;;26.60;15.68;;;0.20;77.80;;;;;;4971681;28;20035;-74
2023/01/27 10:01:00;;;;;;;24.85;15.52;;;0.20;77.70;;;;;;4972226;28;20091;-74
2023/01/27 10:03:29;;;;;;;26.67;15.40;;;0.10;77.50;;;;;;4972235;28;20027;-74
2023/01/27 10:06:32;;;;;;;25.98;16.08;;;0.00;78.10;;;;;;4971776;28;20034;-74
2023/01/27 10:09:38;;;;;;;24.27;15.90;;;0.00;78.50;;;;;;4972974;28;20444;-75
2023/01/27 10:12:41;;;;;;;19.65;11.63;;;0.00;78.60;;;;;;4961985;28;20058;-75
2023/01/27 10:15:38;;;;;;;28.15;16.65;;;0.00;79.00;;;;;;4972353;28;20448;-74
2023/01/27 10:18:45;;;;;;;26.40;17.10;;;0.00;78.90;;;;;;4971936;28;20046;-75
2023/01/27 10:21:19;;;;;;;32.53;19.13;;;0.00;79.00;;;;;;4973442;28;20027;-74
2023/01/27 10:24:25;;;;;;;19.45;12.50;;;-0.20;79.20;;;;;;4972384;28;20180;-75
2023/01/27 10:26:55;;;;;;;23.47;15.10;;;-0.20;80.00;;;;;;4942300;28;20119;-77
2023/01/27 10:29:35;;;;;;;30.38;18.33;;;-0.20;81.00;;;;;;4974616;28;20022;-81
2023/01/27 10:32:15;;;;;;;35.63;19.40;;;-0.10;80.20;;;;;;5060549;28;20065;-80
2023/01/27 10:35:02;;;;;;;36.13;20.95;;;-0.10;80.30;;;;;;5065116;28;20015;-77
2023/01/27 10:37:48;;;;;;;28.65;17.70;;;-0.10;80.10;;;;;;5078818;28;20125;-77
2023/01/27 10:40:19;;;;;;;;;;;0.00;79.70;;;;;;5065204;28;20324;-74
2023/01/27 10:43:01;;;;;;;29.48;17.85;;;0.00;79.70;;;;;;4991327;28;19906;-75
2023/01/27 10:45:36;;;;;;;27.25;15.52;;;-0.10;80.10;;;;;;5059267;28;20067;-73
2023/01/27 10:48:28;;;;;;;30.45;17.92;;;-0.10;79.80;;;;;;5059773;28;20041;-74
2023/01/27 10:51:12;;;;;;;25.15;16.13;;;-0.10;79.80;;;;;;5062194;28;20048;-75
2023/01/27 10:54:04;;;;;;;26.38;16.17;;;-0.10;79.80;;;;;;5063558;28;20038;-75
2023/01/27 10:56:52;;;;;;;26.60;15.25;;;-0.30;79.80;;;;;;5072142;28;20024;-75
2023/01/27 10:59:40;;;;;;;27.27;15.82;;;-0.30;79.80;;;;;;5063842;28;20022;-73
2023/01/27 11:02:08;;;;;;;27.90;16.25;;;-0.40;79.90;;;;;;5070663;28;20022;-75
2023/01/27 11:04:45;;;;;;;27.13;15.90;;;-0.60;80.90;;;;;;5034737;28;20014;-75
2023/01/27 11:07:18;;;;;;;30.42;17.27;;;-0.60;81.30;;;;;;5059902;28;20034;-74
2023/01/27 11:09:50;;;;;;;29.02;16.52;;;-0.60;81.30;;;;;;5062787;28;20230;-79
2023/01/27 11:12:23;;;;;;;33.92;17.17;;;-0.70;81.70;;;;;;5089059;28;20026;-76
2023/01/27 11:14:52;;;;;;;30.55;17.45;;;-0.60;81.90;;;;;;5061109;28;20023;-80
2023/01/27 11:17:42;;;;;;;27.13;15.90;;;-0.60;81.70;;;;;;5066730;28;20027;-80
2023/01/27 11:20:42;;;;;;;28.75;16.83;;;-0.60;81.10;;;;;;5044982;28;20486;-78
2023/01/27 11:23:16;;;;;;;27.38;16.50;;;-0.70;81.10;;;;;;5050347;28;20077;-83
2023/01/27 11:26:01;;;;;;;26.60;15.75;;;-0.70;81.30;;;;;;5068585;28;20037;-77
2023/01/27 11:28:48;;;;;;;30.08;18.35;;;-0.70;81.40;;;;;;5072106;28;20496;-82
2023/01/27 11:31:52;;;;;;;28.33;16.38;;;-0.70;81.60;;;;;;5070991;28;20075;-77
2023/01/27 11:34:46;;;;;;;27.70;16.38;;;-0.70;81.70;;;;;;5061440;28;20029;-80
2023/01/27 11:37:19;;;;;;;27.17;16.60;;;-0.60;81.70;;;;;;5072556;28;20018;-83
2023/01/27 11:39:57;;;;;;;26.75;15.52;;;-0.50;81.60;;;;;;5062582;28;20024;-82
2023/01/27 11:42:30;;;;;;;23.88;14.40;;;-0.30;81.50;;;;;;5088729;28;20038;-84
2023/01/27 11:45:02;;;;;;;22.95;14.13;;;-0.20;80.90;;;;;;5058833;28;20125;-76
2023/01/27 11:47:36;;;;;;;23.38;15.07;;;-0.10;80.50;;;;;;5075828;28;20125;-78
2023/01/27 11:50:03;;;;;;;22.77;13.75;;;0.00;79.70;;;;;;5094160;28;20021;-78
2023/01/27 11:52:30;;;;;;;21.63;12.35;;;0.10;79.50;;;;;;5080774;28;20060;-79
2023/01/27 11:55:13;;;;;;;23.30;14.43;;;0.20;78.90;;;;;;5085421;28;20004;-77
2023/01/27 11:57:46;;;;;;;22.83;14.30;;;0.30;78.50;;;;;;5099893;28;20023;-82
2023/01/27 12:00:25;;;;;;;22.88;14.02;;;0.20;77.60;;;;;;5072364;28;20026;-78
2023/01/27 12:03:02;;;;;;;24.48;14.13;;;0.20;77.70;;;;;;5071348;28;20424;-75
2023/01/27 12:05:32;;;;;;;25.23;14.95;;;0.20;77.70;;;;;;5043277;28;20383;-76
2023/01/27 12:08:00;;;;;;;26.02;15.32;;;0.20;77.80;;;;;;5058370;28;20436;-77
2023/01/27 12:10:32;;;;;;;28.67;17.05;;;0.30;77.90;;;;;;5065290;28;20027;-74
2023/01/27 12:13:08;;;;;;;27.88;16.45;;;0.30;78.00;;;;;;5087488;28;20030;-73
2023/01/27 12:15:33;;;;;;;;;;;0.30;78.00;;;;;;5059930;28;20018;-72
2023/01/27 12:18:13;;;;;;;32.33;18.73;;;0.00;78.00;;;;;;5069668;28;19912;-75
2023/01/27 12:20:42;;;;;;;32.65;18.58;;;-0.20;78.90;;;;;;5061326;28;20023;-76
2023/01/27 12:23:23;;;;;;;32.47;18.58;;;-0.30;79.60;;;;;;5064559;28;20106;-74
2023/01/27 12:25:56;;;;;;;35.67;21.20;;;-0.30;80.10;;;;;;5047312;28;20123;-77
2023/01/27 12:28:49;;;;;;;35.97;20.35;;;-0.30;80.20;;;;;;5064768;28;20061;-74
2023/01/27 12:31:23;;;;;;;31.95;19.85;;;-0.30;80.50;;;;;;5070025;28;20404;-74
2023/01/27 12:34:03;;;;;;;33.22;20.00;;;-0.20;80.30;;;;;;5068935;28;20475;-75
2023/01/27 12:36:39;;;;;;;32.50;19.48;;;-0.20;80.40;;;;;;5067299;28;20335;-76
2023/01/27 12:39:06;;;;;;;29.42;17.52;;;-0.30;80.10;;;;;;5063901;28;20018;-75
2023/01/27 12:41:34;;;;;;;33.17;18.40;;;-0.20;80.20;;;;;;5058774;28;20126;-76
2023/01/27 12:44:14;;;;;;;28.75;17.42;;;-0.20;80.40;;;;;;5067164;28;20027;-75
2023/01/27 12:46:58;;;;;;;31.27;18.35;;;-0.10;80.50;;;;;;5059582;28;20049;-76
2023/01/27 12:49:33;;;;;;;29.77;16.70;;;-0.10;80.40;;;;;;5090120;28;20035;-74
2023/01/27 12:52:02;;;;;;;20.83;12.77;;;0.10;80.20;;;;;;5076278;28;20033;-75
2023/01/27 12:54:31;;;;;;;26.55;16.50;;;0.20;79.80;;;;;;5062514;28;20530;-74
2023/01/27 12:57:02;;;;;;;27.63;15.93;;;0.20;79.30;;;;;;5070099;28;20375;-79
2023/01/27 12:59:28;;;;;;;24.88;15.65;;;0.30;79.00;;;;;;5067235;28;20114;-74
2023/01/27 13:02:02;;;;;;;27.77;15.07;;;0.40;78.50;;;;;;5073815;28;20115;-76
2023/01/27 13:04:29;;;;;;;32.45;17.10;;;0.40;78.30;;;;;;5074539;28;20024;-73
2023/01/27 13:07:00;;;;;;;28.83;16.63;;;0.40;77.50;;;;;;5074144;28;20086;-76
2023/01/27 13:09:34;;;;;;;32.30;18.25;;;0.40;77.70;;;;;;5074135;28;20016;-74
2023/01/27 13:12:09;;;;;;;29.65;17.98;;;0.40;77.60;;;;;;5074221;28;20024;-76
2023/01/27 13:14:40;;;;;;;29.60;18.10;;;0.30;77.50;;;;;;5074013;28;20085;-76
2023/01/27 13:17:35;;;;;;;28.52;16.75;;;0.10;77.80;;;;;;5074158;28;20028;-76
2023/01/27 13:20:18;;;;;;;31.23;18.30;;;0.00;78.50;;;;;;5088103;28;20097;-77
2023/01/27 13:22:47;;;;;;;26.17;15.77;;;0.00;79.00;;;;;;5068009;28;20036;-77
2023/01/27 13:25:27;;;;;;;35.03;21.45;;;0.30;88.80;;;;;;5034063;28;20038;-78
2023/01/27 13:27:58;;;;;;;36.85;19.80;;;1.00;94.20;;;;;;5065210;28;20083;-76